Time;durP1;ratioP1;P1;durP2;ratioP2;P2;SDS_P1;SDS_P2;PMS_P1;PMS_P2;Temp;Humidity;BMP_temperature;BMP_pressure;BME280_temperature;BME280_humidity;BME280_pressure;Samples;Min_cycle;Max_cycle;Signal;HPM_P1;HPM_P2
2023/07/04 00:00:12;;;;;;;12.30;7.90;;;;;;;-128.00;-1.00;-1.00;97996;284;1003077;-36
2023/07/04 00:02:39;;;;;;;17.10;7.20;;;;;;;-128.00;-1.00;-1.00;97902;296;1004168;-34
2023/07/04 00:05:05;;;;;;;16.60;8.30;;;;;;;-128.00;-1.00;-1.00;97883;284;1003212;-33
2023/07/04 00:07:31;;;;;;;13.50;7.10;;;;;;;-128.00;-1.00;-1.00;97979;296;1002919;-35
2023/07/04 00:09:59;;;;;;;18.20;6.80;;;;;;;-128.00;-1.00;-1.00;97841;284;1004341;-31
2023/07/04 00:12:25;;;;;;;15.00;6.20;;;;;;;-128.00;-1.00;-1.00;97829;296;1002794;-30
2023/07/04 00:14:51;;;;;;;14.80;7.00;;;;;;;-128.00;-1.00;-1.00;97759;284;1004209;-35
2023/07/04 00:17:18;;;;;;;12.40;7.30;;;;;;;-128.00;-1.00;-1.00;97764;296;1003556;-31
2023/07/04 00:19:47;;;;;;;17.10;6.60;;;;;;;-128.00;-1.00;-1.00;97825;296;1003307;-29
2023/07/04 00:22:13;;;;;;;9.30;6.30;;;;;;;-128.00;-1.00;-1.00;97798;284;1003194;-34
2023/07/04 00:24:40;;;;;;;9.80;5.20;;;;;;;-128.00;-1.00;-1.00;97762;284;1003626;-34
2023/07/04 00:27:06;;;;;;;11.20;7.20;;;;;;;-128.00;-1.00;-1.00;97867;288;1004261;-30
2023/07/04 00:29:31;;;;;;;8.40;5.40;;;;;;;-128.00;-1.00;-1.00;97948;296;1002986;-34
2023/07/04 00:31:58;;;;;;;11.40;7.00;;;;;;;-128.00;-1.00;-1.00;97975;296;1003015;-34
2023/07/04 00:34:24;;;;;;;18.60;6.70;;;;;;;-128.00;-1.00;-1.00;97921;284;1003608;-35
2023/07/04 01:18:30;;;;;;;16.20;7.60;;;;;;;-99.65;16.65;19812.69;98374;296;1544285;-34
2023/07/04 01:20:59;;;;;;;12.20;6.00;;;;;;;-128.00;-1.00;-1.00;97519;296;1003112;-35
2023/07/04 01:23:48;;;;;;;9.50;6.50;;;;;;;-128.00;-1.00;-1.00;74089;295;7354118;-30
2023/07/04 01:26:38;;;;;;;11.40;6.60;;;;;;;-128.00;-1.00;-1.00;33830;295;7504336;-35
2023/07/04 01:29:06;;;;;;;23.50;9.00;;;;;;;-128.00;-1.00;-1.00;18500;295;7504323;-32
2023/07/04 01:31:32;;;;;;;15.70;7.80;;;;;;;-128.00;-1.00;-1.00;18462;296;7504259;-30
2023/07/04 01:33:58;;;;;;;22.70;8.80;;;;;;;-128.00;-1.00;-1.00;18475;347;7506302;-32
2023/07/04 01:36:26;;;;;;;11.60;7.00;;;;;;;-128.00;-1.00;-1.00;18489;295;7504701;-32
2023/07/04 01:38:52;;;;;;;10.60;7.10;;;;;;;-128.00;-1.00;-1.00;18490;287;7506244;-31
2023/07/04 01:41:18;;;;;;;13.30;8.00;;;;;;;-128.00;-1.00;-1.00;18472;295;7505770;-31
2023/07/04 01:43:50;;;;;;;10.50;6.40;;;;;;;-128.00;-1.00;-1.00;18525;295;7504580;-35
2023/07/04 01:46:16;;;;;;;14.50;7.30;;;;;;;-128.00;-1.00;-1.00;18487;295;7505814;-35
2023/07/04 01:48:42;;;;;;;20.20;7.90;;;;;;;-128.00;-1.00;-1.00;18459;296;7505377;-31
2023/07/04 01:51:08;;;;;;;7.70;5.50;;;;;;;-128.00;-1.00;-1.00;18488;295;7506033;-31
2023/07/04 01:53:34;;;;;;;17.00;7.70;;;;;;;-128.00;-1.00;-1.00;18908;287;7505263;-32
2023/07/04 01:56:00;;;;;;;14.50;7.60;;;;;;;-128.00;-1.00;-1.00;18905;295;7504580;-35
2023/07/04 01:58:26;;;;;;;15.10;8.00;;;;;;;-128.00;-1.00;-1.00;18900;295;7505130;-35
2023/07/04 02:00:52;;;;;;;12.30;6.10;;;;;;;-128.00;-1.00;-1.00;18872;287;7505926;-35
2023/07/04 02:03:18;;;;;;;10.90;6.60;;;;;;;-128.00;-1.00;-1.00;18874;336;7504461;-34
2023/07/04 02:05:44;;;;;;;16.60;7.80;;;;;;;-128.00;-1.00;-1.00;18911;347;7505084;-30
2023/07/04 02:08:11;;;;;;;11.80;6.80;;;;;;;-128.00;-1.00;-1.00;18885;295;7504248;-35
2023/07/04 02:10:37;;;;;;;14.40;7.50;;;;;;;-128.00;-1.00;-1.00;18909;287;7504853;-32
2023/07/04 02:13:03;;;;;;;24.60;6.70;;;;;;;-128.00;-1.00;-1.00;18938;295;7505448;-35
2023/07/04 02:15:32;;;;;;;20.70;8.20;;;;;;;-128.00;-1.00;-1.00;18888;347;7504482;-32
2023/07/04 02:17:58;;;;;;;9.30;5.40;;;;;;;-128.00;-1.00;-1.00;18474;295;7506288;-35
2023/07/04 02:20:24;;;;;;;12.10;6.80;;;;;;;-128.00;-1.00;-1.00;18884;331;7505489;-32
2023/07/04 02:22:50;;;;;;;17.00;6.60;;;;;;;-128.00;-1.00;-1.00;18488;295;7504981;-36
2023/07/04 02:25:16;;;;;;;11.70;5.70;;;;;;;-128.00;-1.00;-1.00;18462;295;7504898;-30
2023/07/04 02:27:42;;;;;;;12.60;5.60;;;;;;;-128.00;-1.00;-1.00;18862;295;7504869;-30
2023/07/04 02:30:09;;;;;;;13.20;7.10;;;;;;;-128.00;-1.00;-1.00;22673;295;7504595;-33
2023/07/04 02:32:35;;;;;;;13.50;6.80;;;;;;;-128.00;-1.00;-1.00;18904;307;7504541;-35
2023/07/04 02:35:01;;;;;;;13.80;7.10;;;;;;;-128.00;-1.00;-1.00;18865;295;7504845;-31
2023/07/04 02:37:28;;;;;;;16.10;8.70;;;;;;;-128.00;-1.00;-1.00;18878;311;7504434;-33
2023/07/04 02:39:54;;;;;;;14.30;8.20;;;;;;;-128.00;-1.00;-1.00;18877;318;7504435;-35
2023/07/04 02:42:20;;;;;;;19.30;8.80;;;;;;;-128.00;-1.00;-1.00;18900;295;7504479;-31
2023/07/04 02:44:46;;;;;;;13.70;8.10;;;;;;;-128.00;-1.00;-1.00;18869;295;7504884;-31
2023/07/04 02:47:12;;;;;;;23.40;9.10;;;;;;;-128.00;-1.00;-1.00;18855;297;7504744;-33
2023/07/04 02:49:38;;;;;;;18.90;8.90;;;;;;;-128.00;-1.00;-1.00;20316;295;7504685;-37
2023/07/04 02:52:05;;;;;;;17.40;8.40;;;;;;;-128.00;-1.00;-1.00;18859;295;7504751;-31
2023/07/04 02:54:31;;;;;;;25.60;8.30;;;;;;;-128.00;-1.00;-1.00;18464;319;7504416;-35
2023/07/04 02:56:58;;;;;;;18.30;8.60;;;;;;;-128.00;-1.00;-1.00;18878;295;7505001;-31
2023/07/04 02:59:23;;;;;;;11.00;5.50;;;;;;;-128.00;-1.00;-1.00;18499;295;7505044;-30
2023/07/04 03:01:52;;;;;;;11.30;7.60;;;;;;;-128.00;-1.00;-1.00;18897;283;7505114;-35
2023/07/04 03:04:17;;;;;;;19.00;7.10;;;;;;;-128.00;-1.00;-1.00;18487;295;7504212;-31
2023/07/04 03:06:43;;;;;;;17.10;7.40;;;;;;;-128.00;-1.00;-1.00;18440;295;7505928;-31
2023/07/04 03:09:09;;;;;;;21.40;8.30;;;;;;;-128.00;-1.00;-1.00;18843;295;7505453;-35
2023/07/04 03:11:35;;;;;;;18.90;9.00;;;;;;;-128.00;-1.00;-1.00;18869;295;7504800;-35
2023/07/04 03:14:01;;;;;;;12.90;7.20;;;;;;;-128.00;-1.00;-1.00;18860;287;7504458;-35
2023/07/04 03:16:27;;;;;;;14.50;6.20;;;;;;;-128.00;-1.00;-1.00;18879;297;7505085;-32
2023/07/04 03:18:54;;;;;;;14.50;6.00;;;;;;;-128.00;-1.00;-1.00;18898;295;7504673;-35
2023/07/04 03:24:27;;;;;;;11.00;5.20;;;;;;;;;;100923;300;543800;-35
2023/07/04 03:26:53;;;;;;;12.30;5.70;;;;;;;;;;101064;302;23068;-29
2023/07/04 03:29:18;;;;;;;16.50;6.90;;;;;;;;;;101005;302;22580;-34
2023/07/04 03:31:44;;;;;;;8.30;4.30;;;;;;;;;;100964;302;24127;-30
2023/07/04 03:34:10;;;;;;;8.00;5.40;;;;;;;;;;101082;302;22995;-31
2023/07/04 03:36:35;;;;;;;9.40;4.80;;;;;;;;;;101105;302;24266;-33
2023/07/04 03:39:01;;;;;;;13.80;6.40;;;;;;;;;;100603;302;526538;-35
2023/07/04 03:41:26;;;;;;;19.30;6.50;;;;;;;;;;101192;289;22580;-32
2023/07/04 03:43:52;;;;;;;11.80;7.10;;;;;;;;;;101067;300;22581;-34
2023/07/04 03:46:17;;;;;;;11.60;5.80;;;;;;;;;;101271;300;22589;-33
2023/07/04 03:48:43;;;;;;;25.80;7.50;;;;;;;;;;100995;300;24290;-37
2023/07/04 03:51:08;;;;;;;17.60;7.40;;;;;;;;;;101267;299;25200;-32
2023/07/04 03:53:37;;;;;;;15.80;6.30;;;;;;;;;;101274;289;22580;-35
2023/07/04 03:56:06;;;;;;;22.00;7.20;;;;;;;;;;101239;287;22886;-30
2023/07/04 03:58:31;;;;;;;9.20;5.90;;;;;;;;;;101485;299;22669;-34
2023/07/04 04:00:57;;;;;;;20.60;6.60;;;;;;;;;;101311;299;24165;-32
2023/07/04 04:03:24;;;;;;;12.30;5.60;;;;;;;;;;101183;299;22880;-34
2023/07/04 04:05:50;;;;;;;9.80;5.80;;;;;;;;;;101212;298;22677;-30
2023/07/04 04:08:15;;;;;;;16.90;8.30;;;;;;;;;;101302;299;24258;-31
2023/07/04 04:10:41;;;;;;;10.70;7.00;;;;;;;;;;101256;288;23000;-34
2023/07/04 04:13:06;;;;;;;14.50;6.90;;;;;;;;;;101345;298;22801;-34
2023/07/04 04:15:32;;;;;;;8.90;6.40;;;;;;;;;;101248;298;24178;-36
2023/07/04 04:17:57;;;;;;;15.60;7.70;;;;;;;;;;101195;298;24073;-32
2023/07/04 04:20:23;;;;;;;10.80;7.20;;;;;;;;;;101277;298;24070;-32
2023/07/04 04:22:49;;;;;;;15.70;9.60;;;;;;;;;;101360;299;22813;-31
2023/07/04 04:25:15;;;;;;;28.60;7.90;;;;;;;;;;101250;298;22675;-34
2023/07/04 04:27:46;;;;;;;10.00;6.50;;;;;;;;;;101271;299;22577;-33
2023/07/04 04:30:11;;;;;;;9.90;6.60;;;;;;;;;;101251;298;22647;-30
2023/07/04 04:32:37;;;;;;;15.60;7.40;;;;;;;;;;101274;298;23013;-30
2023/07/04 04:35:03;;;;;;;11.30;6.10;;;;;;;;;;101202;298;24146;-30
2023/07/04 04:37:29;;;;;;;12.90;5.70;;;;;;;;;;101208;288;24144;-35
2023/07/04 04:39:55;;;;;;;12.10;5.20;;;;;;;;;;101291;288;24336;-31
2023/07/04 04:42:23;;;;;;;9.60;5.90;;;;;;;;;;101176;288;23796;-30
2023/07/04 04:44:53;;;;;;;9.70;4.80;;;;;;;;;;101191;299;23013;-35
2023/07/04 04:47:25;;;;;;;7.90;5.90;;;;;;;;;;101249;288;23307;-36
2023/07/04 04:49:51;;;;;;;13.60;6.10;;;;;;;;;;101297;299;22671;-37
2023/07/04 04:52:20;;;;;;;9.30;5.40;;;;;;;;;;101382;288;22595;-31
2023/07/04 04:54:47;;;;;;;6.90;5.20;;;;;;;;;;101342;288;22648;-35
2023/07/04 04:57:13;;;;;;;13.40;5.30;;;;;;;;;;101213;299;24114;-35
2023/07/04 04:59:39;;;;;;;9.90;5.20;;;;;;;;;;101208;299;22580;-31
2023/07/04 05:02:04;;;;;;;10.10;4.90;;;;;;;;;;101267;288;22886;-36
2023/07/04 05:04:30;;;;;;;6.50;4.70;;;;;;;;;;101282;299;24119;-35
2023/07/04 05:06:55;;;;;;;9.40;4.90;;;;;;;;;;101260;287;22678;-31
2023/07/04 05:09:21;;;;;;;7.90;5.30;;;;;;;;;;101233;288;22679;-32
2023/07/04 05:11:47;;;;;;;17.90;5.90;;;;;;;;;;101260;299;24146;-36
2023/07/04 05:14:13;;;;;;;9.40;5.30;;;;;;;;;;101264;287;22977;-32
2023/07/04 05:16:39;;;;;;;9.40;5.20;;;;;;;;;;101258;299;24268;-38
2023/07/04 05:19:04;;;;;;;11.60;5.10;;;;;;;;;;101258;287;22580;-35
2023/07/04 05:21:30;;;;;;;7.60;4.80;;;;;;;;;;101237;288;22580;-32
2023/07/04 05:23:55;;;;;;;10.40;5.10;;;;;;;;;;101239;288;22570;-33
2023/07/04 05:26:22;;;;;;;11.70;4.90;;;;;;;;;;101198;287;22922;-32
2023/07/04 05:28:49;;;;;;;13.80;5.50;;;;;;;;;;101314;299;22577;-35
2023/07/04 05:31:16;;;;;;;13.80;4.30;;;;;;;;;;101277;288;22594;-34
2023/07/04 05:33:42;;;;;;;9.50;4.50;;;;;;;;;;101194;299;22575;-31
2023/07/04 05:36:08;;;;;;;16.90;5.10;;;;;;;;;;101186;288;22588;-33
2023/07/04 05:38:34;;;;;;;9.10;5.00;;;;;;;;;;101233;299;22586;-39
2023/07/04 05:41:00;;;;;;;5.70;3.40;;;;;;;;;;101438;299;22892;-30
2023/07/04 05:43:26;;;;;;;5.60;3.50;;;;;;;;;;101227;299;22679;-32
2023/07/04 05:45:52;;;;;;;8.60;4.60;;;;;;;;;;101187;300;22812;-34
2023/07/04 05:48:18;;;;;;;8.10;4.00;;;;;;;;;;101264;299;22545;-32
2023/07/04 05:50:50;;;;;;;5.30;2.90;;;;;;;;;;101211;299;25834;-31
2023/07/04 05:53:15;;;;;;;8.20;4.10;;;;;;;;;;101251;287;22580;-35
2023/07/04 05:55:41;;;;;;;7.60;3.60;;;;;;;;;;101336;299;24206;-31
2023/07/04 05:58:07;;;;;;;6.80;4.20;;;;;;;;;;101225;288;22624;-35
2023/07/04 06:00:34;;;;;;;15.00;4.50;;;;;;;;;;101424;299;22846;-32
2023/07/04 06:02:59;;;;;;;7.20;3.30;;;;;;;;;;101335;299;22577;-32
2023/07/04 06:05:25;;;;;;;8.50;2.80;;;;;;;;;;101184;288;22575;-31
2023/07/04 06:07:50;;;;;;;7.00;2.90;;;;;;;;;;101169;299;22606;-31
2023/07/04 06:10:16;;;;;;;9.80;3.90;;;;;;;;;;101223;287;22676;-32
2023/07/04 06:12:41;;;;;;;10.80;4.10;;;;;;;;;;101284;287;22575;-38
2023/07/04 06:15:07;;;;;;;6.60;3.30;;;;;;;;;;101280;287;22577;-35
2023/07/04 06:17:32;;;;;;;8.30;2.90;;;;;;;;;;101313;288;22643;-36
2023/07/04 06:19:58;;;;;;;4.10;2.40;;;;;;;;;;101195;287;22680;-36
2023/07/04 06:22:24;;;;;;;6.30;3.20;;;;;;;;;;101216;288;22673;-32
2023/07/04 06:24:52;;;;;;;6.90;3.40;;;;;;;;;;101346;297;22577;-35
2023/07/04 06:27:18;;;;;;;7.00;3.80;;;;;;;;;;101487;297;22954;-30
2023/07/04 06:29:46;;;;;;;12.90;2.80;;;;;;;;;;101337;297;22580;-34
2023/07/04 06:32:11;;;;;;;6.00;2.30;;;;;;;;;;101423;297;22586;-34
2023/07/04 06:34:37;;;;;;;7.50;3.10;;;;;;;;;;101363;297;22672;-31
2023/07/04 06:37:02;;;;;;;7.40;2.50;;;;;;;;;;101380;297;22575;-31
2023/07/04 06:39:28;;;;;;;3.80;2.20;;;;;;;;;;101382;297;24116;-35
2023/07/04 06:41:53;;;;;;;10.50;2.50;;;;;;;;;;101328;297;24267;-35
2023/07/04 06:44:19;;;;;;;5.50;2.20;;;;;;;;;;101303;297;22690;-33
2023/07/04 06:46:45;;;;;;;8.90;2.90;;;;;;;;;;101274;297;22598;-37
2023/07/04 06:49:11;;;;;;;4.00;2.20;;;;;;;;;;101256;297;22575;-38
2023/07/04 06:51:36;;;;;;;6.90;2.80;;;;;;;;;;101343;297;22803;-36
2023/07/04 06:54:02;;;;;;;6.60;2.70;;;;;;;;;;101378;297;22686;-30
2023/07/04 06:56:28;;;;;;;7.20;2.70;;;;;;;;;;101318;299;22636;-32
2023/07/04 06:58:54;;;;;;;5.40;2.20;;;;;;;;;;101362;298;23065;-31
2023/07/04 07:01:22;;;;;;;9.20;2.60;;;;;;;;;;101399;297;24335;-35
2023/07/04 07:03:48;;;;;;;6.80;1.90;;;;;;;;;;101490;298;22686;-31
2023/07/04 07:06:14;;;;;;;3.10;1.80;;;;;;;;;;101302;298;22673;-37
2023/07/04 07:08:39;;;;;;;5.10;2.20;;;;;;;;;;101321;298;22599;-35
2023/07/04 07:11:06;;;;;;;6.10;1.80;;;;;;;;;;101301;298;22568;-35
2023/07/04 07:13:32;;;;;;;7.80;2.00;;;;;;;;;;101285;298;23014;-33
2023/07/04 07:16:09;;;;;;;3.30;1.80;;;;;;;;;;101429;298;22572;-32
2023/07/04 07:18:35;;;;;;;6.00;2.60;;;;;;;;;;101402;298;22576;-32
2023/07/04 07:21:01;;;;;;;5.40;2.50;;;;;;;;;;101309;298;22539;-34
2023/07/04 07:23:27;;;;;;;3.80;1.50;;;;;;;;;;101300;298;23014;-33
2023/07/04 07:25:56;;;;;;;7.20;2.50;;;;;;;;;;101378;298;22732;-31
2023/07/04 07:28:25;;;;;;;9.20;1.90;;;;;;;;;;101445;286;24213;-35
2023/07/04 07:31:03;;;;;;;2.30;1.00;;;;;;;;;;101400;298;22914;-31
2023/07/04 07:33:30;;;;;;;12.20;2.00;;;;;;;;;;101327;298;25151;-35
2023/07/04 07:35:55;;;;;;;4.60;2.30;;;;;;;;;;101383;298;23014;-35
2023/07/04 07:38:21;;;;;;;8.10;2.00;;;;;;;;;;101480;297;22994;-35
2023/07/04 07:40:52;;;;;;;6.80;1.90;;;;;;;;;;101398;297;22825;-32
2023/07/04 07:43:18;;;;;;;8.90;2.80;;;;;;;;;;101399;298;22714;-37
2023/07/04 07:45:44;;;;;;;4.00;2.10;;;;;;;;;;101412;297;24259;-31
2023/07/04 07:48:10;;;;;;;3.30;1.60;;;;;;;;;;101383;298;22577;-31
2023/07/04 07:50:35;;;;;;;6.10;1.70;;;;;;;;;;101416;298;22889;-37
2023/07/04 07:53:01;;;;;;;4.00;2.30;;;;;;;;;;101447;298;23010;-35
2023/07/04 07:55:26;;;;;;;5.50;2.30;;;;;;;;;;101318;298;22673;-32
2023/07/04 07:57:51;;;;;;;4.10;1.90;;;;;;;;;;101324;298;23031;-31
2023/07/04 08:00:17;;;;;;;6.50;2.40;;;;;;;;;;101448;298;22562;-35
2023/07/04 08:02:43;;;;;;;2.20;1.10;;;;;;;;;;101322;298;22851;-31
2023/07/04 08:05:08;;;;;;;3.40;1.80;;;;;;;;;;101376;298;22665;-36
2023/07/04 08:07:34;;;;;;;4.30;1.90;;;;;;;;;;101394;298;24263;-35
2023/07/04 08:09:59;;;;;;;3.40;1.90;;;;;;;;;;101429;298;24240;-35
2023/07/04 08:12:25;;;;;;;3.40;1.50;;;;;;;;;;101384;297;24248;-33
2023/07/04 08:14:51;;;;;;;2.40;1.40;;;;;;;;;;101374;298;24094;-30
2023/07/04 08:17:17;;;;;;;2.40;0.80;;;;;;;;;;101395;298;22575;-32
2023/07/04 08:19:42;;;;;;;13.30;1.40;;;;;;;;;;101487;298;24150;-35
2023/07/04 08:22:08;;;;;;;2.30;1.20;;;;;;;;;;101208;298;24148;-32
2023/07/04 08:24:33;;;;;;;2.50;1.10;;;;;;;;;;101363;298;22577;-31
2023/07/04 08:26:59;;;;;;;7.00;2.90;;;;;;;;;;101472;298;22576;-33
2023/07/04 08:29:25;;;;;;;3.60;1.20;;;;;;;;;;101441;298;24296;-32
2023/07/04 08:31:51;;;;;;;4.40;1.30;;;;;;;;;;101460;297;22886;-31
2023/07/04 08:34:17;;;;;;;0.70;0.60;;;;;;;;;;101329;298;22674;-31
2023/07/04 08:36:44;;;;;;;4.40;1.00;;;;;;;;;;101399;298;22635;-32
2023/07/04 08:39:10;;;;;;;2.40;1.00;;;;;;;;;;101407;286;22581;-33
2023/07/04 08:41:41;;;;;;;2.90;1.40;;;;;;;;;;101434;298;23043;-34
2023/07/04 08:44:08;;;;;;;3.10;1.50;;;;;;;;;;101326;298;22581;-34
2023/07/04 08:46:35;;;;;;;2.60;0.50;;;;;;;;;;101504;297;23014;-32
2023/07/04 08:49:01;;;;;;;2.30;1.10;;;;;;;;;;101472;297;24144;-31
2023/07/04 08:51:38;;;;;;;3.70;1.40;;;;;;;;;;101339;297;23011;-34
2023/07/04 08:54:04;;;;;;;5.40;1.30;;;;;;;;;;101342;285;22593;-30
2023/07/04 08:56:31;;;;;;;1.80;1.30;;;;;;;;;;101570;298;22660;-31
2023/07/04 08:59:09;;;;;;;3.40;1.20;;;;;;;;;;101274;288;24145;-37
2023/07/04 09:01:38;;;;;;;2.20;0.80;;;;;;;;;;101536;297;22575;-35
2023/07/04 09:04:08;;;;;;;1.90;1.70;;;;;;;;;;101419;298;22882;-32
2023/07/04 09:06:40;;;;;;;3.30;1.40;;;;;;;;;;101454;297;22993;-33
2023/07/04 09:09:09;;;;;;;4.20;1.10;;;;;;;;;;101378;297;25261;-35
2023/07/04 09:11:35;;;;;;;3.80;1.50;;;;;;;;;;101286;298;24144;-33
2023/07/04 09:14:12;;;;;;;2.60;0.90;;;;;;;;;;101492;297;22678;-35
2023/07/04 09:16:38;;;;;;;2.40;1.60;;;;;;;;;;101315;297;22677;-33
2023/07/04 09:19:05;;;;;;;2.10;1.40;;;;;;;;;;101387;298;22888;-36
2023/07/04 09:21:31;;;;;;;2.30;1.50;;;;;;;;;;101448;297;24194;-32
2023/07/04 09:23:58;;;;;;;4.10;1.30;;;;;;;;;;101311;297;23007;-35
2023/07/04 09:26:25;;;;;;;3.60;1.80;;;;;;;;;;101459;298;24144;-35
2023/07/04 09:28:51;;;;;;;7.90;1.70;;;;;;;;;;101359;297;22579;-35
2023/07/04 09:31:18;;;;;;;4.50;1.80;;;;;;;;;;101306;297;22886;-35
2023/07/04 09:33:47;;;;;;;3.90;1.50;;;;;;;;;;101394;297;22577;-34
2023/07/04 09:36:13;;;;;;;3.20;1.60;;;;;;;;;;101404;297;25300;-31
2023/07/04 09:38:51;;;;;;;5.30;2.20;;;;;;;;;;101265;286;22576;-34
2023/07/04 09:41:17;;;;;;;2.50;1.40;;;;;;;;;;101377;298;22767;-31
2023/07/04 09:43:42;;;;;;;2.80;1.60;;;;;;;;;;101486;297;22702;-32
2023/07/04 09:46:20;;;;;;;4.00;2.40;;;;;;;;;;101331;297;23010;-37
2023/07/04 09:48:46;;;;;;;3.50;1.80;;;;;;;;;;101291;297;22832;-33
2023/07/04 09:51:16;;;;;;;4.70;2.20;;;;;;;;;;101296;297;22573;-37
2023/07/04 09:53:41;;;;;;;3.00;2.60;;;;;;;;;;101309;297;24076;-37
2023/07/04 09:56:07;;;;;;;5.10;3.50;;;;;;;;;;101263;297;22813;-32
2023/07/04 09:58:32;;;;;;;4.30;3.20;;;;;;;;;;101399;297;23144;-38
2023/07/04 10:01:08;;;;;;;3.00;1.90;;;;;;;;;;101343;297;22571;-34
2023/07/04 10:03:37;;;;;;;4.90;3.60;;;;;;;;;;101323;297;24139;-37
2023/07/04 10:06:03;;;;;;;3.30;2.30;;;;;;;;;;101393;297;24245;-35
2023/07/04 10:08:29;;;;;;;3.90;2.80;;;;;;;;;;101432;297;22581;-36
2023/07/04 10:10:55;;;;;;;2.40;1.70;;;;;;;;;;101322;297;24076;-33
2023/07/04 10:13:23;;;;;;;2.90;2.00;;;;;;;;;;101506;297;22812;-33
2023/07/04 10:15:49;;;;;;;11.80;2.00;;;;;;;;;;101384;297;22594;-30
2023/07/04 10:18:27;;;;;;;5.40;2.60;;;;;;;;;;101370;297;22614;-35
2023/07/04 10:20:56;;;;;;;4.40;2.40;;;;;;;;;;101364;297;22843;-31
2023/07/04 10:23:22;;;;;;;5.60;3.30;;;;;;;;;;101370;297;22645;-34
2023/07/04 10:25:48;;;;;;;2.90;2.20;;;;;;;;;;101299;297;22670;-34
2023/07/04 10:28:15;;;;;;;3.60;2.80;;;;;;;;;;101381;297;22580;-35
2023/07/04 10:30:42;;;;;;;6.40;3.30;;;;;;;;;;101323;297;22673;-37
2023/07/04 10:33:10;;;;;;;6.90;3.10;;;;;;;;;;101358;297;22593;-36
2023/07/04 10:35:36;;;;;;;6.30;3.10;;;;;;;;;;101391;297;24075;-31
2023/07/04 10:38:04;;;;;;;4.20;2.30;;;;;;;;;;101444;297;22676;-36
2023/07/04 10:40:30;;;;;;;2.00;1.50;;;;;;;;;;101323;297;22579;-32
2023/07/04 10:42:57;;;;;;;9.10;2.60;;;;;;;;;;101325;297;22603;-35
2023/07/04 10:45:23;;;;;;;13.00;3.30;;;;;;;;;;101342;297;22581;-31
2023/07/04 10:47:51;;;;;;;4.30;2.20;;;;;;;;;;101317;297;22579;-35
2023/07/04 10:50:22;;;;;;;4.90;1.90;;;;;;;;;;101347;298;24069;-35
2023/07/04 10:52:48;;;;;;;2.50;1.80;;;;;;;;;;101212;288;25230;-31
2023/07/04 10:55:21;;;;;;;3.80;2.30;;;;;;;;;;101232;298;22579;-35
2023/07/04 10:57:48;;;;;;;5.00;2.10;;;;;;;;;;101371;298;22676;-33
2023/07/04 11:00:22;;;;;;;3.70;2.20;;;;;;;;;;101391;298;23053;-33
2023/07/04 11:02:50;;;;;;;5.00;3.00;;;;;;;;;;101398;298;22671;-35
2023/07/04 11:05:18;;;;;;;2.80;1.80;;;;;;;;;;101331;298;22867;-35
2023/07/04 11:07:44;;;;;;;4.50;2.50;;;;;;;;;;101338;298;24207;-34
2023/07/04 11:10:10;;;;;;;7.10;2.50;;;;;;;;;;101322;298;22676;-30
2023/07/04 11:12:37;;;;;;;3.40;1.60;;;;;;;;;;101298;298;22579;-37
2023/07/04 11:15:04;;;;;;;2.10;1.50;;;;;;;;;;101284;298;22676;-35
2023/07/04 11:17:30;;;;;;;12.70;2.70;;;;;;;;;;101308;298;23033;-35
2023/07/04 11:20:04;;;;;;;5.20;2.30;;;;;;;;;;101392;298;22577;-31
2023/07/04 11:22:44;;;;;;;2.30;1.90;;;;;;;;;;101223;298;23099;-31
2023/07/04 11:25:21;;;;;;;1.90;1.20;;;;;;;;;;101339;298;22581;-31
2023/07/04 11:27:55;;;;;;;8.20;2.50;;;;;;;;;;101327;298;22647;-32
2023/07/04 11:30:31;;;;;;;5.80;2.20;;;;;;;;;;101371;286;22579;-35
2023/07/04 11:32:57;;;;;;;3.40;2.00;;;;;;;;;;101294;298;24750;-36
2023/07/04 11:35:23;;;;;;;9.00;2.30;;;;;;;;;;101329;298;22578;-37
2023/07/04 11:38:01;;;;;;;1.70;0.70;;;;;;;;;;100695;299;728988;-31
2023/07/04 11:40:28;;;;;;;1.60;1.10;;;;;;;;;;101248;298;24117;-31
2023/07/04 11:42:57;;;;;;;1.50;1.00;;;;;;;;;;101242;298;22580;-33
2023/07/04 11:45:22;;;;;;;4.20;0.90;;;;;;;;;;101227;297;22594;-31
2023/07/04 11:47:51;;;;;;;1.80;1.40;;;;;;;;;;101323;297;22672;-42
2023/07/04 11:50:18;;;;;;;1.10;0.60;;;;;;;;;;101135;288;22673;-37
2023/07/04 11:52:45;;;;;;;2.00;1.30;;;;;;;;;;101304;297;22766;-37
2023/07/04 11:55:14;;;;;;;3.90;1.30;;;;;;;;;;101371;297;22576;-31
2023/07/04 11:57:52;;;;;;;3.10;1.60;;;;;;;;;;101355;298;22656;-34
2023/07/04 12:00:40;;;;;;;4.20;1.80;;;;;;;;;;101414;297;22852;-37
2023/07/04 12:03:22;;;;;;;2.40;1.60;;;;;;;;;;101465;298;22680;-37
2023/07/04 12:05:55;;;;;;;1.60;0.70;;;;;;;;;;101447;298;23010;-35
2023/07/04 12:08:32;;;;;;;1.30;0.90;;;;;;;;;;101392;297;24264;-32
2023/07/04 12:11:05;;;;;;;1.60;1.10;;;;;;;;;;101312;286;24246;-33
2023/07/04 12:13:32;;;;;;;1.20;0.50;;;;;;;;;;101391;298;22673;-39
2023/07/04 12:15:58;;;;;;;2.20;0.90;;;;;;;;;;101497;298;23082;-35
2023/07/04 12:18:24;;;;;;;3.90;1.40;;;;;;;;;;101300;298;23141;-34
2023/07/04 12:20:50;;;;;;;5.30;0.70;;;;;;;;;;101374;298;22651;-31
2023/07/04 12:23:16;;;;;;;1.40;0.90;;;;;;;;;;101342;298;22852;-37
2023/07/04 12:25:44;;;;;;;1.90;1.10;;;;;;;;;;101384;298;22808;-35
2023/07/04 12:28:11;;;;;;;1.40;0.60;;;;;;;;;;101463;298;25274;-36
2023/07/04 12:30:48;;;;;;;1.70;0.80;;;;;;;;;;101381;297;22886;-37
2023/07/04 12:33:21;;;;;;;3.00;0.70;;;;;;;;;;101428;298;22583;-31
2023/07/04 13:17:25;;;;;;;1.80;0.90;;;;;;;-96.75;6.00;19817.31;98139;293;1546668;-31
2023/07/04 13:19:51;;;;;;;1.70;1.00;;;;;;;-128.00;-1.00;-1.00;97559;294;1005667;-31
2023/07/04 13:22:18;;;;;;;1.60;1.30;;;;;;;-128.00;-1.00;-1.00;97635;294;1004790;-33
2023/07/04 13:24:44;;;;;;;3.20;1.00;;;;;;;-128.00;-1.00;-1.00;97694;294;1003506;-35
2023/07/04 13:27:19;;;;;;;4.10;1.10;;;;;;;-128.00;-1.00;-1.00;97698;293;1005323;-35
2023/07/04 13:29:57;;;;;;;1.80;1.40;;;;;;;-128.00;-1.00;-1.00;97762;293;1005501;-34
2023/07/04 13:32:26;;;;;;;1.40;1.00;;;;;;;-128.00;-1.00;-1.00;97843;293;1005914;-36
2023/07/04 13:34:52;;;;;;;4.30;2.30;;;;;;;-128.00;-1.00;-1.00;97896;294;1005733;-35
2023/07/04 13:37:18;;;;;;;2.80;2.50;;;;;;;-128.00;-1.00;-1.00;97928;290;1004574;-32
2023/07/04 13:39:43;;;;;;;5.10;2.00;;;;;;;-128.00;-1.00;-1.00;98123;293;1003134;-35
2023/07/04 13:42:10;;;;;;;3.90;1.70;;;;;;;-128.00;-1.00;-1.00;97965;294;1004244;-31
2023/07/04 13:44:36;;;;;;;6.70;1.60;;;;;;;-128.00;-1.00;-1.00;97973;293;1002532;-31
2023/07/04 13:47:03;;;;;;;2.10;1.60;;;;;;;-128.00;-1.00;-1.00;97980;293;1003231;-32
2023/07/04 13:49:29;;;;;;;4.40;2.30;;;;;;;-128.00;-1.00;-1.00;97954;282;1003072;-35
2023/07/04 13:51:55;;;;;;;7.60;3.10;;;;;;;-128.00;-1.00;-1.00;98004;293;1002864;-35
2023/07/04 13:54:21;;;;;;;2.70;1.90;;;;;;;-128.00;-1.00;-1.00;97912;286;1003506;-31
2023/07/04 13:56:47;;;;;;;8.20;3.70;;;;;;;-128.00;-1.00;-1.00;97944;293;1003095;-37
2023/07/04 13:59:12;;;;;;;9.90;4.30;;;;;;;-128.00;-1.00;-1.00;98038;293;1003676;-33
2023/07/04 14:01:38;;;;;;;8.00;5.80;;;;;;;-128.00;-1.00;-1.00;98012;293;1004524;-32
2023/07/04 14:04:03;;;;;;;10.00;5.10;;;;;;;-128.00;-1.00;-1.00;97978;293;1004486;-31
2023/07/04 14:06:29;;;;;;;5.00;3.70;;;;;;;-128.00;-1.00;-1.00;97862;293;1003764;-35
2023/07/04 14:08:57;;;;;;;8.20;5.00;;;;;;;-128.00;-1.00;-1.00;98151;293;1003105;-35
2023/07/04 14:11:22;;;;;;;6.70;4.90;;;;;;;-128.00;-1.00;-1.00;97876;294;1003353;-35
2023/07/04 14:13:51;;;;;;;5.60;3.20;;;;;;;-128.00;-1.00;-1.00;97994;293;1003554;-35
2023/07/04 14:16:18;;;;;;;11.00;7.80;;;;;;;-128.00;-1.00;-1.00;98014;293;1004261;-32
2023/07/04 14:18:44;;;;;;;8.60;3.50;;;;;;;-128.00;-1.00;-1.00;97839;294;1003052;-31
2023/07/04 14:21:12;;;;;;;9.20;7.00;;;;;;;-128.00;-1.00;-1.00;97968;294;1004349;-31
2023/07/04 14:23:38;;;;;;;8.80;6.00;;;;;;;-128.00;-1.00;-1.00;97936;295;1003372;-30
2023/07/04 14:26:05;;;;;;;7.40;5.90;;;;;;;-128.00;-1.00;-1.00;98155;294;1003568;-37
2023/07/04 14:28:30;;;;;;;4.90;3.80;;;;;;;-128.00;-1.00;-1.00;97902;294;1003665;-33
2023/07/04 14:30:57;;;;;;;11.10;6.70;;;;;;;-128.00;-1.00;-1.00;97813;295;1002844;-36
2023/07/04 14:33:23;;;;;;;8.70;5.50;;;;;;;-128.00;-1.00;-1.00;97988;283;1003358;-35
2023/07/04 14:35:49;;;;;;;9.00;7.00;;;;;;;-128.00;-1.00;-1.00;97948;294;1002945;-34
2023/07/04 14:38:16;;;;;;;7.40;5.20;;;;;;;-128.00;-1.00;-1.00;97933;294;1003415;-31
2023/07/04 14:40:42;;;;;;;8.20;7.20;;;;;;;-128.00;-1.00;-1.00;98130;294;1004620;-35
2023/07/04 14:43:08;;;;;;;9.10;6.10;;;;;;;-128.00;-1.00;-1.00;97944;283;1003287;-31
2023/07/04 14:45:34;;;;;;;10.70;8.30;;;;;;;-128.00;-1.00;-1.00;98039;294;1002844;-35
2023/07/04 14:48:01;;;;;;;8.90;6.70;;;;;;;-128.00;-1.00;-1.00;97939;294;1003848;-35
2023/07/04 14:50:26;;;;;;;12.00;7.90;;;;;;;-128.00;-1.00;-1.00;98006;294;1003549;-32
2023/07/04 14:52:52;;;;;;;11.90;7.70;;;;;;;-128.00;-1.00;-1.00;98022;294;1004099;-32